sensor_id;sensor_type;location;lat;lon;timestamp;pressure;altitude;pressure_sealevel;temperature;humidity
40155;BME280;25875;48.202;16.334;2023-04-09T00:00:00;99757.03;;;5.10;70.62
40155;BME280;25875;48.202;16.334;2023-04-09T00:02:27;99663.91;;;4.55;70.60
40155;BME280;25875;48.202;16.334;2023-04-09T00:04:55;99592.44;;;4.10;70.60
40155;BME280;25875;48.202;16.334;2023-04-09T00:07:22;99756.13;;;5.11;70.84
40155;BME280;25875;48.202;16.334;2023-04-09T00:09:49;99762.28;;;5.10;70.78
40155;BME280;25875;48.202;16.334;2023-04-09T00:12:16;99759.66;;;5.10;70.84
40155;BME280;25875;48.202;16.334;2023-04-09T00:14:42;99758.81;;;5.09;70.53
40155;BME280;25875;48.202;16.334;2023-04-09T00:17:09;99765.78;;;5.10;70.69
40155;BME280;25875;48.202;16.334;2023-04-09T00:19:36;99758.75;;;5.11;70.71
40155;BME280;25875;48.202;16.334;2023-04-09T00:22:04;99763.16;;;5.10;70.96
40155;BME280;25875;48.202;16.334;2023-04-09T00:24:30;99754.41;;;5.10;71.19
40155;BME280;25875;48.202;16.334;2023-04-09T00:26:57;99760.56;;;5.09;70.97
40155;BME280;25875;48.202;16.334;2023-04-09T00:29:24;99762.31;;;5.08;71.21
40155;BME280;25875;48.202;16.334;2023-04-09T00:31:51;99761.47;;;5.08;71.43
40155;BME280;25875;48.202;16.334;2023-04-09T00:34:18;99756.22;;;5.08;71.24
40155;BME280;25875;48.202;16.334;2023-04-09T00:36:45;99756.22;;;5.08;71.45
40155;BME280;25875;48.202;16.334;2023-04-09T00:39:13;99756.22;;;5.08;71.35
40155;BME280;25875;48.202;16.334;2023-04-09T00:41:39;99762.31;;;5.08;71.49
40155;BME280;25875;48.202;16.334;2023-04-09T00:44:06;99757.06;;;5.08;71.59
40155;BME280;25875;48.202;16.334;2023-04-09T00:46:32;99757.06;;;5.08;71.68
40155;BME280;25875;48.202;16.334;2023-04-09T00:48:59;99683.84;;;4.62;71.54
40155;BME280;25875;48.202;16.334;2023-04-09T00:51:26;99761.47;;;5.08;71.67
40155;BME280;25875;48.202;16.334;2023-04-09T00:53:54;99755.38;;;5.06;71.91
40155;BME280;25875;48.202;16.334;2023-04-09T00:56:22;99721.84;;;4.81;71.84
40155;BME280;25875;48.202;16.334;2023-04-09T00:58:49;99755.44;;;5.04;71.79
40155;BME280;25875;48.202;16.334;2023-04-09T01:01:16;99757.16;;;5.05;71.53
40155;BME280;25875;48.202;16.334;2023-04-09T01:03:43;99758.91;;;5.05;71.39
40155;BME280;25875;48.202;16.334;2023-04-09T01:06:15;99751.94;;;5.04;71.67
40155;BME280;25875;48.202;16.334;2023-04-09T01:08:50;99757.19;;;5.04;71.66
40155;BME280;25875;48.202;16.334;2023-04-09T01:11:31;99733.31;;;4.79;72.36
40155;BME280;25875;48.202;16.334;2023-04-09T01:14:04;99755.50;;;5.01;72.30
40155;BME280;25875;48.202;16.334;2023-04-09T01:16:34;99752.03;;;5.01;72.47
40155;BME280;25875;48.202;16.334;2023-04-09T01:19:08;99572.81;;;3.91;72.69
40155;BME280;25875;48.202;16.334;2023-04-09T01:21:39;99754.69;;;4.99;72.22
40155;BME280;25875;48.202;16.334;2023-04-09T01:24:18;99763.44;;;5.00;72.84
40155;BME280;25875;48.202;16.334;2023-04-09T01:26:57;99760.84;;;4.98;72.86
40155;BME280;25875;48.202;16.334;2023-04-09T01:29:30;99761.78;;;4.96;72.54
40155;BME280;25875;48.202;16.334;2023-04-09T01:31:57;99601.25;;;4.07;71.93
40155;BME280;25875;48.202;16.334;2023-04-09T01:34:25;99745.16;;;4.95;71.93
40155;BME280;25875;48.202;16.334;2023-04-09T01:36:55;99753.97;;;4.93;72.06
40155;BME280;25875;48.202;16.334;2023-04-09T01:39:23;99752.19;;;4.95;72.01
40155;BME280;25875;48.202;16.334;2023-04-09T01:41:50;99752.16;;;4.96;72.06
40155;BME280;25875;48.202;16.334;2023-04-09T01:44:18;99754.81;;;4.95;72.20
40155;BME280;25875;48.202;16.334;2023-04-09T01:46:48;99746.09;;;4.93;72.12
40155;BME280;25875;48.202;16.334;2023-04-09T01:49:16;99687.66;;;4.51;71.99
40155;BME280;25875;48.202;16.334;2023-04-09T01:51:43;99710.91;;;4.64;71.93
40155;BME280;25875;48.202;16.334;2023-04-09T01:54:10;99758.41;;;4.91;71.98
40155;BME280;25875;48.202;16.334;2023-04-09T01:56:41;99721.19;;;4.73;72.46
40155;BME280;25875;48.202;16.334;2023-04-09T01:59:08;99749.69;;;4.90;72.46
40155;BME280;25875;48.202;16.334;2023-04-09T02:01:38;99760.19;;;4.90;72.64
40155;BME280;25875;48.202;16.334;2023-04-09T02:04:12;99753.19;;;4.89;72.63
40155;BME280;25875;48.202;16.334;2023-04-09T02:06:43;99754.16;;;4.85;74.14
40155;BME280;25875;48.202;16.334;2023-04-09T02:09:14;99721.47;;;4.63;72.57
40155;BME280;25875;48.202;16.334;2023-04-09T02:11:42;99757.63;;;4.86;72.37
40155;BME280;25875;48.202;16.334;2023-04-09T02:14:12;99758.50;;;4.86;72.21
40155;BME280;25875;48.202;16.334;2023-04-09T02:16:39;99754.16;;;4.85;72.18
40155;BME280;25875;48.202;16.334;2023-04-09T02:19:06;99755.88;;;4.86;72.03
40155;BME280;25875;48.202;16.334;2023-04-09T02:21:34;99749.72;;;4.87;72.14
40155;BME280;25875;48.202;16.334;2023-04-09T02:24:01;99762.84;;;4.87;71.91
40155;BME280;25875;48.202;16.334;2023-04-09T02:26:28;99748.84;;;4.87;71.92
40155;BME280;25875;48.202;16.334;2023-04-09T02:28:54;99748.91;;;4.85;71.93
40155;BME280;25875;48.202;16.334;2023-04-09T02:31:21;99751.59;;;4.82;71.89
40155;BME280;25875;48.202;16.334;2023-04-09T02:33:48;99728.25;;;4.71;71.91
40155;BME280;25875;48.202;16.334;2023-04-09T02:36:14;99745.50;;;4.81;71.72
40155;BME280;25875;48.202;16.334;2023-04-09T02:38:42;99746.47;;;4.77;71.82
40155;BME280;25875;48.202;16.334;2023-04-09T02:41:09;99738.63;;;4.76;71.81
40155;BME280;25875;48.202;16.334;2023-04-09T02:43:35;99746.53;;;4.74;71.87
40155;BME280;25875;48.202;16.334;2023-04-09T02:46:02;99745.75;;;4.71;71.76
40155;BME280;25875;48.202;16.334;2023-04-09T02:48:29;99744.91;;;4.70;71.81
40155;BME280;25875;48.202;16.334;2023-04-09T02:50:56;99702.19;;;4.28;71.88
40155;BME280;25875;48.202;16.334;2023-04-09T02:53:22;99747.69;;;4.64;72.02
40155;BME280;25875;48.202;16.334;2023-04-09T02:55:51;99711.56;;;4.38;72.18
40155;BME280;25875;48.202;16.334;2023-04-09T02:58:17;99753.75;;;4.66;72.18
40155;BME280;25875;48.202;16.334;2023-04-09T03:00:44;99747.63;;;4.66;72.32
40155;BME280;25875;48.202;16.334;2023-04-09T03:03:11;99745.00;;;4.66;72.38
40155;BME280;25875;48.202;16.334;2023-04-09T03:05:37;99752.03;;;4.65;72.48
40155;BME280;25875;48.202;16.334;2023-04-09T03:08:04;99691.75;;;4.27;72.50
40155;BME280;25875;48.202;16.334;2023-04-09T03:10:31;99756.44;;;4.63;72.58
40155;BME280;25875;48.202;16.334;2023-04-09T03:12:59;99750.31;;;4.64;72.64
40155;BME280;25875;48.202;16.334;2023-04-09T03:15:25;99748.53;;;4.65;72.33
40155;BME280;25875;48.202;16.334;2023-04-09T03:17:52;99752.94;;;4.64;72.28
40155;BME280;25875;48.202;16.334;2023-04-09T03:20:18;99721.84;;;4.47;72.28
40155;BME280;25875;48.202;16.334;2023-04-09T03:22:45;99744.22;;;4.62;72.17
40155;BME280;25875;48.202;16.334;2023-04-09T03:25:12;99752.03;;;4.65;72.14
40155;BME280;25875;48.202;16.334;2023-04-09T03:27:38;99750.31;;;4.64;72.16
40155;BME280;25875;48.202;16.334;2023-04-09T03:30:07;99745.94;;;4.63;71.94
40155;BME280;25875;48.202;16.334;2023-04-09T03:32:34;99750.31;;;4.64;72.02
40155;BME280;25875;48.202;16.334;2023-04-09T03:35:01;99749.44;;;4.64;72.07
40155;BME280;25875;48.202;16.334;2023-04-09T03:37:27;99747.69;;;4.64;72.25
40155;BME280;25875;48.202;16.334;2023-04-09T03:39:54;99756.41;;;4.65;72.07
40155;BME280;25875;48.202;16.334;2023-04-09T03:42:21;99748.56;;;4.63;72.24
40155;BME280;25875;48.202;16.334;2023-04-09T03:44:47;99758.22;;;4.63;72.33
40155;BME280;25875;48.202;16.334;2023-04-09T03:47:15;99722.81;;;4.43;72.11
40155;BME280;25875;48.202;16.334;2023-04-09T03:49:42;99759.13;;;4.62;72.16
40155;BME280;25875;48.202;16.334;2023-04-09T03:52:08;99717.72;;;4.37;72.04
40155;BME280;25875;48.202;16.334;2023-04-09T03:54:35;99764.38;;;4.62;72.26
40155;BME280;25875;48.202;16.334;2023-04-09T03:57:02;99764.41;;;4.60;72.37
40155;BME280;25875;48.202;16.334;2023-04-09T03:59:28;99764.38;;;4.62;72.36
40155;BME280;25875;48.202;16.334;2023-04-09T04:01:55;99766.13;;;4.61;72.72
40155;BME280;25875;48.202;16.334;2023-04-09T04:04:23;99759.97;;;4.62;72.71
40155;BME280;25875;48.202;16.334;2023-04-09T04:06:50;99763.50;;;4.61;72.83
40155;BME280;25875;48.202;16.334;2023-04-09T04:09:17;99761.69;;;4.63;73.11
40155;BME280;25875;48.202;16.334;2023-04-09T04:11:43;99769.56;;;4.63;73.10
40155;BME280;25875;48.202;16.334;2023-04-09T04:14:10;99772.19;;;4.63;73.24
40155;BME280;25875;48.202;16.334;2023-04-09T04:16:39;99773.94;;;4.64;72.93
40155;BME280;25875;48.202;16.334;2023-04-09T04:19:05;99766.16;;;4.60;72.96
40155;BME280;25875;48.202;16.334;2023-04-09T04:21:33;99747.31;;;4.44;73.24
40155;BME280;25875;48.202;16.334;2023-04-09T04:24:00;99784.44;;;4.64;73.21
40155;BME280;25875;48.202;16.334;2023-04-09T04:26:26;99741.22;;;4.42;73.14
40155;BME280;25875;48.202;16.334;2023-04-09T04:28:53;99783.50;;;4.67;73.38
40155;BME280;25875;48.202;16.334;2023-04-09T04:31:20;99782.63;;;4.66;73.22
40155;BME280;25875;48.202;16.334;2023-04-09T04:33:46;99784.34;;;4.67;73.50
40155;BME280;25875;48.202;16.334;2023-04-09T04:36:13;99786.09;;;4.68;73.33
40155;BME280;25875;48.202;16.334;2023-04-09T04:38:41;99786.09;;;4.68;73.39
40155;BME280;25875;48.202;16.334;2023-04-09T04:41:09;99635.09;;;3.81;73.04
40155;BME280;25875;48.202;16.334;2023-04-09T04:43:36;99790.34;;;4.72;72.92
40155;BME280;25875;48.202;16.334;2023-04-09T04:46:03;99789.47;;;4.73;72.99
40155;BME280;25875;48.202;16.334;2023-04-09T04:48:30;99768.78;;;4.60;72.72
40155;BME280;25875;48.202;16.334;2023-04-09T04:50:58;99752.41;;;4.50;72.75
40155;BME280;25875;48.202;16.334;2023-04-09T04:53:25;99729.13;;;4.36;72.61
40155;BME280;25875;48.202;16.334;2023-04-09T04:55:53;99800.03;;;4.70;72.68
40155;BME280;25875;48.202;16.334;2023-04-09T04:58:20;99796.53;;;4.70;72.63
40155;BME280;25875;48.202;16.334;2023-04-09T05:00:47;99804.34;;;4.73;72.61
40155;BME280;25875;48.202;16.334;2023-04-09T05:03:13;99798.19;;;4.74;72.64
40155;BME280;25875;48.202;16.334;2023-04-09T05:05:40;99801.69;;;4.74;72.68
40155;BME280;25875;48.202;16.334;2023-04-09T05:08:07;99801.69;;;4.74;72.68
40155;BME280;25875;48.202;16.334;2023-04-09T05:10:34;99808.66;;;4.75;72.80
40155;BME280;25875;48.202;16.334;2023-04-09T05:13:02;99806.94;;;4.74;72.66
40155;BME280;25875;48.202;16.334;2023-04-09T05:15:28;99804.28;;;4.76;72.71
40155;BME280;25875;48.202;16.334;2023-04-09T05:17:55;99804.31;;;4.74;72.61
40155;BME280;25875;48.202;16.334;2023-04-09T05:20:22;99800.09;;;4.67;72.80
40155;BME280;25875;48.202;16.334;2023-04-09T05:22:49;99812.16;;;4.76;72.81
40155;BME280;25875;48.202;16.334;2023-04-09T05:25:16;99820.00;;;4.77;72.79
40155;BME280;25875;48.202;16.334;2023-04-09T05:27:43;99816.44;;;4.80;72.64
40155;BME280;25875;48.202;16.334;2023-04-09T05:30:11;99812.94;;;4.79;72.86
40155;BME280;25875;48.202;16.334;2023-04-09T05:32:38;99813.81;;;4.80;72.71
40155;BME280;25875;48.202;16.334;2023-04-09T05:35:05;99808.63;;;4.77;72.83
40155;BME280;25875;48.202;16.334;2023-04-09T05:37:32;99806.75;;;4.82;72.84
40155;BME280;25875;48.202;16.334;2023-04-09T05:39:59;99812.88;;;4.82;72.85
40155;BME280;25875;48.202;16.334;2023-04-09T05:42:25;99817.19;;;4.85;72.79
40155;BME280;25875;48.202;16.334;2023-04-09T05:44:52;99823.25;;;4.87;72.94
40155;BME280;25875;48.202;16.334;2023-04-09T05:47:21;99642.22;;;3.76;72.69
40155;BME280;25875;48.202;16.334;2023-04-09T05:49:48;99769.06;;;4.49;72.86
40155;BME280;25875;48.202;16.334;2023-04-09T05:52:14;99832.88;;;4.88;72.80
40155;BME280;25875;48.202;16.334;2023-04-09T05:54:41;99833.72;;;4.89;72.68
40155;BME280;25875;48.202;16.334;2023-04-09T05:57:08;99840.75;;;4.90;72.65
40155;BME280;25875;48.202;16.334;2023-04-09T05:59:34;99835.44;;;4.91;72.51
40155;BME280;25875;48.202;16.334;2023-04-09T06:02:01;99828.38;;;4.93;72.58
40155;BME280;25875;48.202;16.334;2023-04-09T06:04:29;99834.53;;;4.92;72.58
40155;BME280;25875;48.202;16.334;2023-04-09T06:06:56;99829.25;;;4.94;72.69
40155;BME280;25875;48.202;16.334;2023-04-09T06:09:24;99766.28;;;4.55;72.53
40155;BME280;25875;48.202;16.334;2023-04-09T06:11:51;99839.66;;;4.98;72.52
40155;BME280;25875;48.202;16.334;2023-04-09T06:14:18;99836.13;;;4.99;72.55
40155;BME280;25875;48.202;16.334;2023-04-09T06:16:44;99842.16;;;5.03;72.76
40155;BME280;25875;48.202;16.334;2023-04-09T06:19:11;99805.03;;;4.81;72.57
40155;BME280;25875;48.202;16.334;2023-04-09T06:21:39;99841.19;;;5.07;72.48
40155;BME280;25875;48.202;16.334;2023-04-09T06:24:06;99842.03;;;5.07;72.57
40155;BME280;25875;48.202;16.334;2023-04-09T06:26:33;99839.38;;;5.09;72.75
40155;BME280;25875;48.202;16.334;2023-04-09T06:29:00;99840.25;;;5.09;72.76
40155;BME280;25875;48.202;16.334;2023-04-09T06:31:27;99837.59;;;5.11;72.83
40155;BME280;25875;48.202;16.334;2023-04-09T06:33:53;99822.13;;;4.99;72.83
40155;BME280;25875;48.202;16.334;2023-04-09T06:36:20;99850.56;;;5.17;72.61
40155;BME280;25875;48.202;16.334;2023-04-09T06:38:48;99850.47;;;5.20;72.97
40155;BME280;25875;48.202;16.334;2023-04-09T06:41:15;99846.91;;;5.23;73.08
40155;BME280;25875;48.202;16.334;2023-04-09T06:43:41;99844.22;;;5.26;72.94
40155;BME280;25875;48.202;16.334;2023-04-09T06:46:08;99852.88;;;5.29;72.92
40155;BME280;25875;48.202;16.334;2023-04-09T06:48:35;99844.00;;;5.33;72.94
40155;BME280;25875;48.202;16.334;2023-04-09T06:51:02;99823.19;;;5.26;73.00
40155;BME280;25875;48.202;16.334;2023-04-09T06:53:29;99842.00;;;5.43;72.90
40155;BME280;25875;48.202;16.334;2023-04-09T06:55:57;99848.78;;;5.52;72.88
40155;BME280;25875;48.202;16.334;2023-04-09T06:58:23;99850.34;;;5.59;73.05
40155;BME280;25875;48.202;16.334;2023-04-09T07:00:50;99851.94;;;5.64;72.55
40155;BME280;25875;48.202;16.334;2023-04-09T07:03:17;99825.13;;;5.52;72.52
40155;BME280;25875;48.202;16.334;2023-04-09T07:05:44;99857.81;;;5.74;72.50
40155;BME280;25875;48.202;16.334;2023-04-09T07:08:11;99822.31;;;5.58;72.16
40155;BME280;25875;48.202;16.334;2023-04-09T07:10:38;99861.06;;;5.84;72.07
40155;BME280;25875;48.202;16.334;2023-04-09T07:13:06;99862.66;;;5.89;71.65
40155;BME280;25875;48.202;16.334;2023-04-09T07:15:33;99826.91;;;5.82;71.58
40155;BME280;25875;48.202;16.334;2023-04-09T07:17:59;99867.13;;;6.17;71.32
40155;BME280;25875;48.202;16.334;2023-04-09T07:20:26;99866.84;;;6.26;71.27
40155;BME280;25875;48.202;16.334;2023-04-09T07:22:53;99864.94;;;6.31;70.72
40155;BME280;25875;48.202;16.334;2023-04-09T07:25:20;99863.13;;;6.33;70.38
40155;BME280;25875;48.202;16.334;2023-04-09T07:27:46;99865.72;;;6.34;70.31
40155;BME280;25875;48.202;16.334;2023-04-09T07:30:15;99870.88;;;6.37;70.15
40155;BME280;25875;48.202;16.334;2023-04-09T07:32:42;99866.41;;;6.41;70.03
40155;BME280;25875;48.202;16.334;2023-04-09T07:35:09;99863.72;;;6.42;69.59
40155;BME280;25875;48.202;16.334;2023-04-09T07:37:36;99869.94;;;6.40;69.39
40155;BME280;25875;48.202;16.334;2023-04-09T07:40:03;99870.84;;;6.39;69.21
40155;BME280;25875;48.202;16.334;2023-04-09T07:42:30;99876.16;;;6.37;69.18
40155;BME280;25875;48.202;16.334;2023-04-09T07:44:57;99872.72;;;6.35;69.32
40155;BME280;25875;48.202;16.334;2023-04-09T07:47:25;99873.56;;;6.36;69.24
40155;BME280;25875;48.202;16.334;2023-04-09T07:49:52;99877.09;;;6.35;69.72
40155;BME280;25875;48.202;16.334;2023-04-09T07:52:19;99876.19;;;6.36;69.77
40155;BME280;25875;48.202;16.334;2023-04-09T07:54:46;99871.75;;;6.38;69.34
40155;BME280;25875;48.202;16.334;2023-04-09T07:57:12;99874.34;;;6.39;69.25
40155;BME280;25875;48.202;16.334;2023-04-09T07:59:39;99878.66;;;6.42;69.27
40155;BME280;25875;48.202;16.334;2023-04-09T08:02:06;99883.00;;;6.43;69.17
40155;BME280;25875;48.202;16.334;2023-04-09T08:04:34;99879.59;;;6.39;69.15
40155;BME280;25875;48.202;16.334;2023-04-09T08:07:01;99884.69;;;6.46;68.96
40155;BME280;25875;48.202;16.334;2023-04-09T08:09:28;99887.31;;;6.46;69.12
40155;BME280;25875;48.202;16.334;2023-04-09T08:11:55;99892.53;;;6.47;69.30
40155;BME280;25875;48.202;16.334;2023-04-09T08:14:21;99895.13;;;6.49;69.69
40155;BME280;25875;48.202;16.334;2023-04-09T08:16:48;99890.63;;;6.52;69.86
40155;BME280;25875;48.202;16.334;2023-04-09T08:19:15;99894.09;;;6.54;69.84
40155;BME280;25875;48.202;16.334;2023-04-09T08:21:45;99887.91;;;6.55;69.80
40155;BME280;25875;48.202;16.334;2023-04-09T08:24:13;99894.91;;;6.56;69.68
40155;BME280;25875;48.202;16.334;2023-04-09T08:26:40;99882.59;;;6.57;69.42
40155;BME280;25875;48.202;16.334;2023-04-09T08:29:08;99885.19;;;6.58;69.31
40155;BME280;25875;48.202;16.334;2023-04-09T08:31:35;99889.53;;;6.59;69.20
40155;BME280;25875;48.202;16.334;2023-04-09T08:34:02;99894.63;;;6.65;69.29
40155;BME280;25875;48.202;16.334;2023-04-09T08:36:29;99881.59;;;6.61;69.48
40155;BME280;25875;48.202;16.334;2023-04-09T08:38:58;99897.69;;;6.81;69.53
40155;BME280;25875;48.202;16.334;2023-04-09T08:41:26;99895.00;;;6.83;69.10
40155;BME280;25875;48.202;16.334;2023-04-09T08:43:54;99897.53;;;6.86;68.99
40155;BME280;25875;48.202;16.334;2023-04-09T08:46:21;99898.34;;;6.88;68.81
40155;BME280;25875;48.202;16.334;2023-04-09T08:48:49;99878.38;;;6.79;68.32
40155;BME280;25875;48.202;16.334;2023-04-09T08:51:17;99903.50;;;6.91;68.25
40155;BME280;25875;48.202;16.334;2023-04-09T08:53:45;99901.69;;;6.93;67.97
40155;BME280;25875;48.202;16.334;2023-04-09T08:56:13;99904.28;;;6.94;67.92
40155;BME280;25875;48.202;16.334;2023-04-09T08:58:41;99903.38;;;6.95;67.87
40155;BME280;25875;48.202;16.334;2023-04-09T09:01:20;99905.03;;;6.98;67.70
40155;BME280;25875;48.202;16.334;2023-04-09T09:04:00;99908.53;;;6.98;68.22
40155;BME280;25875;48.202;16.334;2023-04-09T09:06:30;99897.34;;;6.92;68.37
40155;BME280;25875;48.202;16.334;2023-04-09T09:09:05;99908.50;;;7.00;68.05
40155;BME280;25875;48.202;16.334;2023-04-09T09:11:34;99885.13;;;6.89;68.08
40155;BME280;25875;48.202;16.334;2023-04-09T09:14:02;99908.31;;;7.06;67.55
40155;BME280;25875;48.202;16.334;2023-04-09T09:16:29;99911.75;;;7.08;67.29
40155;BME280;25875;48.202;16.334;2023-04-09T09:18:57;99903.69;;;7.13;67.29
40155;BME280;25875;48.202;16.334;2023-04-09T09:21:27;99907.13;;;7.15;67.00
40155;BME280;25875;48.202;16.334;2023-04-09T09:23:54;99784.53;;;6.49;66.93
40155;BME280;25875;48.202;16.334;2023-04-09T09:26:23;99714.84;;;6.04;66.72
40155;BME280;25875;48.202;16.334;2023-04-09T09:28:51;99910.44;;;7.21;66.83
40155;BME280;25875;48.202;16.334;2023-04-09T09:31:19;99860.34;;;6.95;67.00
40155;BME280;25875;48.202;16.334;2023-04-09T09:33:47;99912.72;;;7.32;66.88
40155;BME280;25875;48.202;16.334;2023-04-09T09:36:15;99904.81;;;7.32;66.83
40155;BME280;25875;48.202;16.334;2023-04-09T09:38:57;99725.22;;;6.37;66.47
40155;BME280;25875;48.202;16.334;2023-04-09T09:41:27;99906.91;;;7.49;66.48
40155;BME280;25875;48.202;16.334;2023-04-09T09:43:55;99902.28;;;7.55;66.35
40155;BME280;25875;48.202;16.334;2023-04-09T09:46:23;99903.81;;;7.62;66.27
40155;BME280;25875;48.202;16.334;2023-04-09T09:48:50;99904.47;;;7.69;65.95
40155;BME280;25875;48.202;16.334;2023-04-09T09:51:18;99905.97;;;7.76;65.50
40155;BME280;25875;48.202;16.334;2023-04-09T09:53:46;99902.09;;;7.86;65.25
40155;BME280;25875;48.202;16.334;2023-04-09T09:56:20;99573.03;;;5.97;65.23
40155;BME280;25875;48.202;16.334;2023-04-09T09:58:53;99714.03;;;7.10;64.92
40155;BME280;25875;48.202;16.334;2023-04-09T10:01:25;99896.28;;;8.25;64.60
40155;BME280;25875;48.202;16.334;2023-04-09T10:03:55;99890.50;;;8.39;64.70
40155;BME280;25875;48.202;16.334;2023-04-09T10:06:24;99700.78;;;7.36;63.83
40155;BME280;25875;48.202;16.334;2023-04-09T10:08:52;99899.25;;;8.62;63.21
40155;BME280;25875;48.202;16.334;2023-04-09T10:11:22;99889.19;;;8.72;62.89
40155;BME280;25875;48.202;16.334;2023-04-09T10:13:53;99885.16;;;8.85;62.41
40155;BME280;25875;48.202;16.334;2023-04-09T10:16:23;99850.97;;;8.81;62.65
40155;BME280;25875;48.202;16.334;2023-04-09T10:18:51;99862.78;;;8.94;62.31
40155;BME280;25875;48.202;16.334;2023-04-09T10:21:27;99877.94;;;9.11;60.87
40155;BME280;25875;48.202;16.334;2023-04-09T10:23:56;99876.72;;;9.19;61.98
40155;BME280;25875;48.202;16.334;2023-04-09T10:26:25;99873.78;;;9.27;61.81
40155;BME280;25875;48.202;16.334;2023-04-09T10:29:03;99866.25;;;9.38;59.91
40155;BME280;25875;48.202;16.334;2023-04-09T10:31:47;99869.41;;;9.48;59.08
40155;BME280;25875;48.202;16.334;2023-04-09T10:34:15;99776.75;;;9.07;60.79
40155;BME280;25875;48.202;16.334;2023-04-09T10:36:43;99868.22;;;9.75;60.29
40155;BME280;25875;48.202;16.334;2023-04-09T10:39:11;99866.88;;;9.85;59.66
40155;BME280;25875;48.202;16.334;2023-04-09T10:41:38;99858.88;;;9.87;59.45
40155;BME280;25875;48.202;16.334;2023-04-09T10:44:06;99712.56;;;9.04;58.10
40155;BME280;25875;48.202;16.334;2023-04-09T10:46:46;99853.84;;;9.81;58.25
40155;BME280;25875;48.202;16.334;2023-04-09T10:49:15;99850.81;;;9.90;58.42
40155;BME280;25875;48.202;16.334;2023-04-09T10:51:47;99859.00;;;10.04;57.32
40155;BME280;25875;48.202;16.334;2023-04-09T10:54:39;99849.50;;;10.19;55.71
40155;BME280;25875;48.202;16.334;2023-04-09T10:57:15;99851.84;;;10.25;57.06
40155;BME280;25875;48.202;16.334;2023-04-09T10:59:43;99848.00;;;10.32;57.70
40155;BME280;25875;48.202;16.334;2023-04-09T11:02:30;99845.13;;;10.37;55.48
40155;BME280;25875;48.202;16.334;2023-04-09T11:05:17;99803.47;;;10.21;55.72
40155;BME280;25875;48.202;16.334;2023-04-09T11:08:02;99813.75;;;10.27;55.66
40155;BME280;25875;48.202;16.334;2023-04-09T11:10:30;99843.47;;;10.53;56.87
40155;BME280;25875;48.202;16.334;2023-04-09T11:12:56;99789.91;;;10.27;56.27
40155;BME280;25875;48.202;16.334;2023-04-09T11:15:23;99812.91;;;10.46;56.06
40155;BME280;25875;48.202;16.334;2023-04-09T11:17:51;99842.34;;;10.58;55.65
40155;BME280;25875;48.202;16.334;2023-04-09T11:20:20;99838.09;;;10.54;55.76
40155;BME280;25875;48.202;16.334;2023-04-09T11:22:47;99833.97;;;10.49;56.19
40155;BME280;25875;48.202;16.334;2023-04-09T11:25:22;99828.16;;;10.41;54.80
40155;BME280;25875;48.202;16.334;2023-04-09T11:27:49;99800.94;;;10.18;56.85
40155;BME280;25875;48.202;16.334;2023-04-09T11:30:17;99768.31;;;9.99;56.92
40155;BME280;25875;48.202;16.334;2023-04-09T11:32:44;99840.91;;;10.33;56.83
40155;BME280;25875;48.202;16.334;2023-04-09T11:35:14;99844.69;;;10.27;56.04
40155;BME280;25875;48.202;16.334;2023-04-09T11:37:42;99837.81;;;10.23;56.51
40155;BME280;25875;48.202;16.334;2023-04-09T11:40:14;99838.97;;;10.17;54.71
40155;BME280;25875;48.202;16.334;2023-04-09T11:42:42;99842.75;;;10.12;55.79
40155;BME280;25875;48.202;16.334;2023-04-09T11:45:09;99853.56;;;10.07;55.75
40155;BME280;25875;48.202;16.334;2023-04-09T11:47:38;99801.84;;;9.80;56.04
40155;BME280;25875;48.202;16.334;2023-04-09T11:50:07;99777.72;;;9.67;56.18
40155;BME280;25875;48.202;16.334;2023-04-09T11:52:36;99833.44;;;10.03;56.11
40155;BME280;25875;48.202;16.334;2023-04-09T11:55:03;99837.81;;;10.04;56.08
40155;BME280;25875;48.202;16.334;2023-04-09T11:57:39;99833.38;;;10.05;53.64
40155;BME280;25875;48.202;16.334;2023-04-09T12:00:08;99835.94;;;10.06;54.99
40155;BME280;25875;48.202;16.334;2023-04-09T12:02:37;99829.66;;;10.09;54.86
40155;BME280;25875;48.202;16.334;2023-04-09T12:05:07;99836.66;;;10.10;54.43
40155;BME280;25875;48.202;16.334;2023-04-09T12:07:33;99837.47;;;10.12;54.17
40155;BME280;25875;48.202;16.334;2023-04-09T12:10:07;99836.47;;;10.14;52.19
40155;BME280;25875;48.202;16.334;2023-04-09T12:12:39;99839.03;;;10.16;52.46
40155;BME280;25875;48.202;16.334;2023-04-09T12:15:17;99595.34;;;8.64;51.96
40155;BME280;25875;48.202;16.334;2023-04-09T12:17:49;99488.34;;;8.15;53.12
40155;BME280;25875;48.202;16.334;2023-04-09T12:20:30;99838.88;;;10.19;49.77
40155;BME280;25875;48.202;16.334;2023-04-09T12:22:58;99839.09;;;10.14;53.27
40155;BME280;25875;48.202;16.334;2023-04-09T12:25:27;99845.19;;;10.16;53.12
40155;BME280;25875;48.202;16.334;2023-04-09T12:27:54;99841.47;;;10.20;53.09
40155;BME280;25875;48.202;16.334;2023-04-09T12:30:21;99752.75;;;9.73;53.54
40155;BME280;25875;48.202;16.334;2023-04-09T12:32:48;99838.41;;;10.30;53.07
40155;BME280;25875;48.202;16.334;2023-04-09T12:35:14;99842.13;;;10.25;52.46
40155;BME280;25875;48.202;16.334;2023-04-09T12:37:41;99839.53;;;10.24;51.99
40155;BME280;25875;48.202;16.334;2023-04-09T12:40:08;99842.03;;;10.27;51.92
40155;BME280;25875;48.202;16.334;2023-04-09T12:42:38;99742.03;;;9.76;51.75
40155;BME280;25875;48.202;16.334;2023-04-09T12:45:06;99835.09;;;10.24;52.08
40155;BME280;25875;48.202;16.334;2023-04-09T12:47:33;99822.72;;;10.25;52.15
40155;BME280;25875;48.202;16.334;2023-04-09T12:50:00;99789.41;;;10.01;51.93
40155;BME280;25875;48.202;16.334;2023-04-09T12:52:27;99829.72;;;10.26;51.97
40155;BME280;25875;48.202;16.334;2023-04-09T12:54:54;99828.81;;;10.27;52.14
40155;BME280;25875;48.202;16.334;2023-04-09T12:57:21;99826.22;;;10.25;52.44
40155;BME280;25875;48.202;16.334;2023-04-09T12:59:49;99825.44;;;10.23;52.38
40155;BME280;25875;48.202;16.334;2023-04-09T13:02:15;99830.00;;;10.20;52.78